Bookmark and Share
Track history (hours):
 

Alaska Titan

More information available from US FCC via Universal Licensing System and Coast Guard Vessel Documentation Center.

Last reported at 2014-Apr-25 05:43 UTC. Time now 2014-Apr-25 06:03 UTC.
Position N 47°39' W 122°22'.

Length 40 m; draft 6 m.

Type: Tow > 200 m length. MMSI: 367357890.

NotesDate/timePositionNaut miles runAvg speedWind from/ knotsBaromVisibWave heightAir tempDewpointWater temp
2014-Apr-25 05:43N 47°39' W 122°22'0 0.0
2014-Apr-25 05:33N 47°39' W 122°22'0 0.0
2014-Apr-25 04:33N 47°39' W 122°22'0 0.0
2014-Apr-25 04:33N 47°39' W 122°22'0 0.0
2014-Apr-25 03:33N 47°39' W 122°22'0 0.0
2014-Apr-25 03:32N 47°39' W 122°22'0 0.0
2014-Apr-25 02:33N 47°39' W 122°22'0 0.0
2014-Apr-25 02:32N 47°39' W 122°22'0 0.0
2014-Apr-25 01:33N 47°39' W 122°22'0 0.0
2014-Apr-25 01:32N 47°39' W 122°22'0 0.0
2014-Apr-25 00:33N 47°39' W 122°22'0 0.0
2014-Apr-25 00:32N 47°39' W 122°22'0 0.0
2014-Apr-24 23:33N 47°39' W 122°22'0 0.0
2014-Apr-24 23:32N 47°39' W 122°22'0 0.0
2014-Apr-24 22:33N 47°39' W 122°22'0 0.2
2014-Apr-24 22:32N 47°39' W 122°22'0 0.0
2014-Apr-24 21:33N 47°39' W 122°22'0 0.0
2014-Apr-24 21:32N 47°39' W 122°22'0 0.0
2014-Apr-24 17:46N 47°39' W 122°22'0 0.0
2014-Apr-24 17:33N 47°39' W 122°22'0 0.1
2014-Apr-24 17:31N 47°39' W 122°22'1 0.6
2014-Apr-24 16:33N 47°40' W 122°23'3 2.7
2014-Apr-24 15:33N 47°40' W 122°27'6 6.2
2014-Apr-24 14:36N 47°35' W 122°21'0 0.1
2014-Apr-24 14:33N 47°35' W 122°21'0 1.3
2014-Apr-24 14:31N 47°35' W 122°21'5 4.9
2014-Apr-24 13:33N 47°38' W 122°27'0 9.8
2014-Apr-24 13:31N 47°38' W 122°27'8 8.2
2014-Apr-24 12:33N 47°46' W 122°27'0 9.0
2014-Apr-24 12:31N 47°47' W 122°27'9 9.1
2014-Apr-24 11:33N 47°55' W 122°31'0 8.4
2014-Apr-24 11:31N 47°55' W 122°31'17 7.7
2014-Apr-24 09:16N 48°10' W 122°45'7 8.8
2014-Apr-24 08:31N 48°16' W 122°48'9 9.6
2014-Apr-24 07:33N 48°25' W 122°45'8 8.0
2014-Apr-24 06:33N 48°33' W 122°45'7 7.2
2014-Apr-24 05:33N 48°40' W 122°44'9 8.6
2014-Apr-24 04:33N 48°47' W 122°52'10 9.7
2014-Apr-24 03:33N 48°52' W 123°04'9 9.1
2014-Apr-24 02:33N 48°58' W 123°14'9 9.3
2014-Apr-24 01:33N 49°04' W 123°25'9 9.1
2014-Apr-24 00:33N 49°11' W 123°34'10 9.5
2014-Apr-23 23:33N 49°18' W 123°44'9 8.8
2014-Apr-23 22:33N 49°24' W 123°55'9 8.7
2014-Apr-23 21:33N 49°28' W 124°06'9 8.6
2014-Apr-23 20:33N 49°33' W 124°17'9 8.7
2014-Apr-23 19:33N 49°37' W 124°29'9 8.7
2014-Apr-23 18:33N 49°42' W 124°40'9 9.1
2014-Apr-23 17:33N 49°47' W 124°51'9 9.4
2014-Apr-23 16:33N 49°54' W 125°02'80 6.4
2014-Apr-23 04:09N 50°37' W 126°47'610.2
2014-Apr-23 03:33N 50°41' W 126°54'10 9.8
2014-Apr-23 02:32N 50°46' W 127°09'9 8.7
2014-Apr-23 01:32N 50°51' W 127°19'8 7.9
2014-Apr-23 00:33N 50°57' W 127°28'9 8.7
2014-Apr-22 23:33N 51°02' W 127°38'8 8.2
2014-Apr-22 22:33N 51°07' W 127°48'  
2014-Apr-20 03:12N 58°12' W 135°24'6 9.1
2014-Apr-20 02:32N 58°15' W 135°34'8 8.6
2014-Apr-20 01:33N 58°18' W 135°49'9 8.8
2014-Apr-20 00:33N 58°15' W 136°04'7 6.8
2014-Apr-19 23:28N 58°17' W 136°18'  

Dump ship's entire track history

sailing weather and tide predictions

Alaska Titan — WDE4789 — position and weather